Time;durP1;ratioP1;P1;durP2;ratioP2;P2;SDS_P1;SDS_P2;PMS_P1;PMS_P2;Temp;Humidity;BMP_temperature;BMP_pressure;BME280_temperature;BME280_humidity;BME280_pressure;Samples;Min_cycle;Max_cycle;Signal;HPM_P1;HPM_P2
2020/12/30 00:00:07;;;;;;;1.13;0.40;;;3.70;99.90;;;;;;5030277;28;20045;-49
2020/12/30 00:02:34;;;;;;;0.50;0.30;;;3.60;99.90;;;;;;5019703;28;20061;-48
2020/12/30 00:05:03;;;;;;;0.50;0.30;;;3.60;99.90;;;;;;5025580;28;20053;-48
2020/12/30 00:07:35;;;;;;;1.35;0.30;;;3.50;99.90;;;;;;5030909;28;20563;-49
2020/12/30 00:10:03;;;;;;;1.55;0.10;;;3.50;99.90;;;;;;5032146;28;20048;-49
2020/12/30 00:12:36;;;;;;;0.22;0.20;;;3.40;99.90;;;;;;5032184;28;20068;-49
2020/12/30 00:15:04;;;;;;;0.30;0.20;;;3.50;99.90;;;;;;5017791;28;20053;-50
2020/12/30 00:17:30;;;;;;;0.30;0.20;;;3.50;99.90;;;;;;5030553;28;20049;-49
2020/12/30 00:19:57;;;;;;;0.30;0.20;;;3.60;99.90;;;;;;5019478;28;20056;-49
2020/12/30 00:22:23;;;;;;;0.30;0.10;;;3.50;99.90;;;;;;5029121;28;20388;-49
2020/12/30 00:24:50;;;;;;;0.20;0.10;;;3.40;99.90;;;;;;5027193;28;20049;-49
2020/12/30 00:27:16;;;;;;;0.63;0.10;;;3.50;99.90;;;;;;5020830;28;20112;-49
2020/12/30 00:29:43;;;;;;;0.30;0.20;;;3.50;99.90;;;;;;5024961;28;20057;-50
2020/12/30 00:32:10;;;;;;;0.20;0.20;;;3.40;99.90;;;;;;5016176;28;20049;-51
2020/12/30 00:34:41;;;;;;;0.30;0.15;;;3.50;99.90;;;;;;5030159;28;20050;-49
2020/12/30 00:37:11;;;;;;;0.50;0.20;;;3.50;99.90;;;;;;5027320;28;20045;-48
2020/12/30 00:39:39;;;;;;;3.40;0.20;;;3.40;99.90;;;;;;5030699;28;20049;-49
2020/12/30 00:42:06;;;;;;;1.35;0.20;;;3.40;99.90;;;;;;5031326;28;20056;-50
2020/12/30 00:44:33;;;;;;;0.40;0.22;;;3.30;99.90;;;;;;5028160;28;20072;-49
2020/12/30 00:47:00;;;;;;;0.70;0.57;;;3.30;99.90;;;;;;5027015;28;20057;-49
2020/12/30 00:49:27;;;;;;;0.95;0.40;;;3.30;99.90;;;;;;5015701;28;20061;-49
2020/12/30 00:51:56;;;;;;;1.25;0.40;;;3.40;99.90;;;;;;5027939;28;20060;-48
2020/12/30 00:54:24;;;;;;;0.60;0.32;;;3.30;99.90;;;;;;5020403;28;20052;-49
2020/12/30 00:56:51;;;;;;;0.93;0.30;;;3.30;99.90;;;;;;5024202;28;20053;-48
2020/12/30 00:59:18;;;;;;;0.45;0.30;;;3.40;99.90;;;;;;5030984;28;20064;-49
2020/12/30 01:01:51;;;;;;;1.45;0.30;;;3.40;99.90;;;;;;5031487;28;20048;-49
2020/12/30 01:04:21;;;;;;;0.80;0.30;;;3.40;99.90;;;;;;5031892;28;20054;-49
2020/12/30 01:06:49;;;;;;;0.20;0.10;;;3.40;99.90;;;;;;5015029;28;20058;-48
2020/12/30 01:09:16;;;;;;;0.08;0.00;;;3.40;99.90;;;;;;5029162;28;20482;-48
2020/12/30 01:11:43;;;;;;;4.78;0.10;;;3.40;99.90;;;;;;5027446;28;20762;-51
2020/12/30 01:14:10;;;;;;;0.10;0.10;;;3.40;99.90;;;;;;5027610;28;20049;-49
2020/12/30 01:16:37;;;;;;;0.10;0.10;;;3.40;99.90;;;;;;5030961;28;20057;-50
2020/12/30 01:19:06;;;;;;;0.10;0.10;;;3.50;99.90;;;;;;5031453;28;20470;-48
2020/12/30 01:21:42;;;;;;;0.10;0.10;;;3.50;99.90;;;;;;5027834;28;20049;-48
2020/12/30 01:24:09;;;;;;;0.50;0.35;;;3.50;99.90;;;;;;5028893;28;20054;-49
2020/12/30 01:26:37;;;;;;;0.65;0.40;;;3.50;99.90;;;;;;5030795;28;20106;-49
2020/12/30 01:29:05;;;;;;;0.65;0.30;;;3.50;99.90;;;;;;5029742;28;20041;-49
2020/12/30 01:31:33;;;;;;;0.65;0.30;;;3.50;99.90;;;;;;5032091;28;20053;-49
2020/12/30 01:33:59;;;;;;;0.63;0.63;;;3.50;99.90;;;;;;5030714;28;20049;-49
2020/12/30 01:36:27;;;;;;;0.22;0.20;;;3.40;99.90;;;;;;5025156;28;20048;-49
2020/12/30 01:38:54;;;;;;;0.10;0.00;;;3.40;99.90;;;;;;5028531;28;20068;-48
2020/12/30 01:41:22;;;;;;;0.20;0.10;;;3.30;99.90;;;;;;5025545;28;20050;-50
2020/12/30 01:44:00;;;;;;;0.30;0.10;;;3.30;99.90;;;;;;5024892;28;20046;-49
2020/12/30 01:46:38;;;;;;;0.25;0.10;;;3.30;99.90;;;;;;5024958;28;20402;-49
2020/12/30 01:49:12;;;;;;;0.10;0.10;;;3.30;99.90;;;;;;5025868;28;20065;-48
2020/12/30 01:51:40;;;;;;;0.20;0.10;;;3.30;99.90;;;;;;5027331;28;20426;-49
2020/12/30 01:54:14;;;;;;;0.10;0.10;;;3.30;99.90;;;;;;5014057;28;20049;-49
2020/12/30 01:56:42;;;;;;;0.22;0.10;;;3.30;99.90;;;;;;5026367;28;20054;-50
2020/12/30 01:59:11;;;;;;;0.10;0.00;;;3.30;99.90;;;;;;5023228;28;20046;-49
2020/12/30 02:01:51;;;;;;;0.40;0.10;;;3.30;99.90;;;;;;5030945;28;20056;-49
2020/12/30 02:04:23;;;;;;;0.40;0.30;;;3.30;99.90;;;;;;5028221;28;20068;-49
2020/12/30 02:06:50;;;;;;;0.20;0.13;;;3.30;99.90;;;;;;5012908;28;20053;-49
2020/12/30 02:09:17;;;;;;;0.20;0.20;;;3.30;99.90;;;;;;5024773;28;20062;-49
2020/12/30 02:11:43;;;;;;;0.10;0.10;;;3.30;99.90;;;;;;5027059;28;20056;-49
2020/12/30 02:14:11;;;;;;;0.28;0.20;;;3.40;99.90;;;;;;5029552;28;20509;-49
2020/12/30 02:16:52;;;;;;;0.25;0.25;;;3.30;99.90;;;;;;5031364;28;20136;-49
2020/12/30 02:19:19;;;;;;;0.30;0.13;;;3.30;99.90;;;;;;5031451;28;20068;-49
2020/12/30 02:21:47;;;;;;;0.10;0.10;;;3.20;99.90;;;;;;5026264;28;20474;-49
2020/12/30 02:24:29;;;;;;;0.20;0.10;;;3.20;99.90;;;;;;5024400;28;20505;-50
2020/12/30 02:26:57;;;;;;;0.13;0.10;;;3.20;99.90;;;;;;5024211;28;20402;-49
2020/12/30 02:29:28;;;;;;;0.22;0.10;;;3.20;99.90;;;;;;5027613;28;20057;-49
2020/12/30 02:31:55;;;;;;;0.17;0.10;;;3.20;99.90;;;;;;5030351;28;20049;-48
2020/12/30 02:34:21;;;;;;;0.20;0.20;;;3.30;99.90;;;;;;5030141;28;20048;-48
2020/12/30 02:36:48;;;;;;;0.30;0.20;;;3.20;99.90;;;;;;5023348;28;20048;-49
2020/12/30 02:39:15;;;;;;;1.85;0.30;;;3.20;99.90;;;;;;5029127;28;20413;-49
2020/12/30 02:41:42;;;;;;;0.50;0.20;;;3.20;99.90;;;;;;5018730;28;20041;-49
2020/12/30 02:44:08;;;;;;;0.20;0.10;;;3.20;99.90;;;;;;5022760;28;20061;-49
2020/12/30 02:46:35;;;;;;;0.17;0.13;;;3.20;99.90;;;;;;5018173;28;20068;-48
2020/12/30 02:49:02;;;;;;;0.20;0.10;;;3.30;99.90;;;;;;5020983;28;20053;-49
2020/12/30 02:51:28;;;;;;;0.40;0.10;;;3.30;99.90;;;;;;5028626;28;20096;-49
2020/12/30 02:53:54;;;;;;;0.20;0.10;;;3.30;99.90;;;;;;5029800;28;20049;-49
2020/12/30 02:56:21;;;;;;;0.63;0.10;;;3.30;99.90;;;;;;5027715;28;20056;-48
2020/12/30 02:58:49;;;;;;;0.25;0.20;;;3.20;99.90;;;;;;5026761;28;20049;-49
2020/12/30 03:01:16;;;;;;;1.77;0.30;;;3.20;99.90;;;;;;5029366;28;20049;-49
2020/12/30 03:03:43;;;;;;;0.50;0.28;;;3.10;99.90;;;;;;5027635;28;20045;-49
2020/12/30 03:06:10;;;;;;;0.45;0.30;;;3.10;99.90;;;;;;5031610;28;20049;-50
2020/12/30 03:08:38;;;;;;;0.32;0.30;;;3.20;99.90;;;;;;5028082;28;20053;-49
2020/12/30 03:11:05;;;;;;;0.40;0.30;;;3.20;99.90;;;;;;5026008;28;20052;-48
2020/12/30 03:13:32;;;;;;;0.30;0.20;;;3.10;99.90;;;;;;5026929;28;20046;-49
2020/12/30 03:15:59;;;;;;;0.40;0.30;;;3.00;99.90;;;;;;5027121;28;20034;-49
2020/12/30 03:18:25;;;;;;;1.90;0.25;;;3.10;99.90;;;;;;5023672;28;20057;-49
2020/12/30 03:20:52;;;;;;;0.70;0.22;;;3.10;99.90;;;;;;5022717;28;20071;-49
2020/12/30 03:23:18;;;;;;;0.38;0.20;;;3.20;99.90;;;;;;5028087;28;20053;-50
2020/12/30 03:25:45;;;;;;;0.57;0.20;;;3.20;99.90;;;;;;5026956;28;20468;-48
2020/12/30 03:28:11;;;;;;;3.13;0.20;;;3.20;99.90;;;;;;5014164;28;20050;-49
2020/12/30 03:30:38;;;;;;;1.45;0.20;;;3.20;99.90;;;;;;5027203;28;20103;-50
2020/12/30 03:33:05;;;;;;;0.30;0.30;;;3.20;99.90;;;;;;5012008;28;20502;-49
2020/12/30 03:35:32;;;;;;;0.40;0.30;;;3.20;99.90;;;;;;5027320;28;20046;-49
2020/12/30 03:37:58;;;;;;;0.20;0.20;;;3.20;99.90;;;;;;5024141;28;20045;-49
2020/12/30 03:40:24;;;;;;;0.30;0.20;;;3.20;99.90;;;;;;5020013;28;20061;-49
2020/12/30 03:42:51;;;;;;;0.15;0.10;;;3.20;99.90;;;;;;5020005;28;20497;-49
2020/12/30 03:45:17;;;;;;;0.38;0.10;;;3.20;99.90;;;;;;5028816;28;20049;-50
2020/12/30 03:47:44;;;;;;;0.20;0.10;;;3.20;99.90;;;;;;5027295;28;20521;-49
2020/12/30 03:50:11;;;;;;;0.10;0.10;;;3.20;99.90;;;;;;5021847;28;20052;-49
2020/12/30 03:52:38;;;;;;;0.20;0.10;;;3.20;99.90;;;;;;5026551;28;20061;-49
2020/12/30 03:55:04;;;;;;;0.10;0.10;;;3.20;99.90;;;;;;5028770;28;20506;-49
2020/12/30 03:57:31;;;;;;;0.20;0.10;;;3.20;99.90;;;;;;5021737;28;20045;-49
2020/12/30 03:59:57;;;;;;;0.30;0.20;;;3.20;99.90;;;;;;5019134;28;20049;-49
2020/12/30 04:02:24;;;;;;;0.10;0.10;;;3.20;99.90;;;;;;5016559;28;21067;-49
2020/12/30 04:04:50;;;;;;;0.10;0.10;;;3.20;99.90;;;;;;5024898;28;20392;-49
2020/12/30 04:07:16;;;;;;;0.20;0.10;;;3.20;99.90;;;;;;5019276;28;20873;-49
2020/12/30 04:09:43;;;;;;;0.22;0.10;;;3.20;99.90;;;;;;5027156;28;20360;-49
2020/12/30 04:12:09;;;;;;;0.13;0.10;;;3.20;99.90;;;;;;5026937;28;20064;-49
2020/12/30 04:14:36;;;;;;;0.17;0.10;;;3.20;99.90;;;;;;5028094;28;20053;-49
2020/12/30 04:17:03;;;;;;;0.20;0.10;;;3.20;99.90;;;;;;5022156;28;20045;-49
2020/12/30 04:19:29;;;;;;;0.10;0.10;;;3.10;99.90;;;;;;5019440;28;20666;-49
2020/12/30 04:21:56;;;;;;;1.15;0.20;;;3.20;99.90;;;;;;5021649;28;20754;-48
2020/12/30 04:24:22;;;;;;;0.57;0.17;;;3.10;99.90;;;;;;5012782;28;20042;-49
2020/12/30 04:26:49;;;;;;;0.13;0.10;;;3.10;99.90;;;;;;5025257;28;20045;-49
2020/12/30 04:29:15;;;;;;;0.20;0.10;;;3.20;99.90;;;;;;5020535;28;20045;-49
2020/12/30 04:31:41;;;;;;;0.30;0.10;;;3.20;99.90;;;;;;5030231;28;20049;-49
2020/12/30 04:34:08;;;;;;;0.10;0.10;;;3.20;99.90;;;;;;5026263;28;20061;-49
2020/12/30 04:36:35;;;;;;;0.20;0.10;;;3.20;99.90;;;;;;5022646;28;20050;-49
2020/12/30 04:39:02;;;;;;;0.65;0.30;;;3.20;99.90;;;;;;5024736;28;20057;-49
2020/12/30 04:41:32;;;;;;;0.38;0.20;;;3.20;99.90;;;;;;5024263;28;20048;-49
2020/12/30 04:44:04;;;;;;;0.30;0.20;;;3.20;99.90;;;;;;5030840;28;20037;-49
2020/12/30 04:46:31;;;;;;;1.40;0.75;;;3.20;99.90;;;;;;5032961;28;20056;-50
2020/12/30 04:48:59;;;;;;;0.30;0.22;;;3.20;99.90;;;;;;5024825;28;20044;-48
2020/12/30 04:51:29;;;;;;;0.30;0.20;;;3.20;99.90;;;;;;5021403;28;20049;-49
2020/12/30 04:54:00;;;;;;;0.10;0.10;;;3.10;99.90;;;;;;5033558;28;20569;-49
2020/12/30 04:57:01;;;;;;;0.30;0.20;;;3.20;99.90;;;;;;5025610;28;20067;-49
2020/12/30 04:59:39;;;;;;;0.30;0.20;;;3.30;99.90;;;;;;5018434;28;20529;-49
2020/12/30 05:02:06;;;;;;;0.17;0.10;;;3.30;99.90;;;;;;5023157;28;20046;-49
2020/12/30 05:04:35;;;;;;;0.20;0.15;;;3.30;99.90;;;;;;5028475;28;20071;-48
2020/12/30 05:07:10;;;;;;;0.30;0.20;;;3.30;99.90;;;;;;5032263;28;20059;-49
2020/12/30 05:09:38;;;;;;;0.15;0.10;;;3.30;99.90;;;;;;5030542;28;20064;-51
2020/12/30 05:12:16;;;;;;;2.35;0.20;;;3.30;99.90;;;;;;5027788;28;20539;-49
2020/12/30 05:14:43;;;;;;;0.30;0.20;;;3.30;99.90;;;;;;5032522;28;20054;-49
2020/12/30 05:17:11;;;;;;;0.65;0.10;;;3.30;99.90;;;;;;5028617;28;20064;-49
2020/12/30 05:19:38;;;;;;;0.22;0.10;;;3.20;99.90;;;;;;5023658;28;20099;-49
2020/12/30 05:22:05;;;;;;;0.15;0.10;;;3.20;99.90;;;;;;5030763;28;20057;-50
2020/12/30 05:24:33;;;;;;;0.20;0.10;;;3.20;99.90;;;;;;5015527;28;20137;-49
2020/12/30 05:26:59;;;;;;;0.15;0.10;;;3.20;99.90;;;;;;5029814;28;20139;-49
2020/12/30 05:29:27;;;;;;;0.30;0.10;;;3.20;99.90;;;;;;5027935;28;20055;-49
2020/12/30 05:31:54;;;;;;;0.10;0.10;;;3.20;99.90;;;;;;5025554;28;20054;-49
2020/12/30 05:34:23;;;;;;;0.10;0.10;;;3.30;99.90;;;;;;5026846;28;20081;-49
2020/12/30 05:36:51;;;;;;;0.20;0.10;;;3.20;99.90;;;;;;5017857;28;20057;-49
2020/12/30 05:39:38;;;;;;;0.10;0.10;;;3.30;99.90;;;;;;5025372;28;20049;-50
2020/12/30 05:42:14;;;;;;;0.10;0.10;;;3.30;99.90;;;;;;5019202;28;20053;-49
2020/12/30 05:44:46;;;;;;;0.20;0.17;;;3.30;99.90;;;;;;5029739;28;20050;-49
2020/12/30 05:47:13;;;;;;;1.35;0.20;;;3.30;99.90;;;;;;5029897;28;20049;-49
2020/12/30 05:49:41;;;;;;;0.35;0.13;;;3.20;99.90;;;;;;5030520;28;20097;-50
2020/12/30 05:52:11;;;;;;;0.20;0.10;;;3.30;99.90;;;;;;5028603;28;20058;-49
2020/12/30 05:54:38;;;;;;;1.05;0.38;;;3.30;99.90;;;;;;5014831;28;20057;-49
2020/12/30 05:57:24;;;;;;;2.45;0.50;;;3.30;99.90;;;;;;5028813;28;20044;-49
2020/12/30 05:59:53;;;;;;;0.40;0.40;;;3.30;99.90;;;;;;5028213;28;20041;-49
2020/12/30 06:02:26;;;;;;;1.25;0.45;;;3.30;99.90;;;;;;5024353;28;20052;-49
2020/12/30 06:04:54;;;;;;;1.52;0.40;;;3.30;99.90;;;;;;5021843;28;20056;-49
2020/12/30 06:07:20;;;;;;;0.60;0.40;;;3.30;99.90;;;;;;5031152;28;20045;-49
2020/12/30 06:09:51;;;;;;;0.93;0.50;;;3.30;99.90;;;;;;5029628;28;20056;-49
2020/12/30 06:12:25;;;;;;;3.80;0.57;;;3.30;99.90;;;;;;5027922;28;20057;-49
2020/12/30 06:14:53;;;;;;;0.70;0.60;;;3.30;99.90;;;;;;5023193;28;20046;-50
2020/12/30 06:17:58;;;;;;;0.65;0.60;;;3.30;99.90;;;;;;5019770;28;20434;-49
2020/12/30 06:20:32;;;;;;;2.95;0.63;;;3.30;99.90;;;;;;5022698;28;20053;-49
2020/12/30 06:23:00;;;;;;;0.65;0.32;;;3.20;99.90;;;;;;5026378;28;20049;-49
2020/12/30 06:25:32;;;;;;;2.83;0.40;;;3.20;99.90;;;;;;5020212;28;20053;-49
2020/12/30 06:28:21;;;;;;;0.43;0.30;;;3.10;99.90;;;;;;5030516;28;20049;-49
2020/12/30 06:30:51;;;;;;;0.50;0.38;;;3.10;99.90;;;;;;5028285;28;20052;-49
2020/12/30 06:33:27;;;;;;;2.85;0.70;;;3.10;99.90;;;;;;5023117;28;20053;-52
2020/12/30 06:35:57;;;;;;;0.73;0.50;;;3.10;99.90;;;;;;5027348;28;20426;-49
2020/12/30 06:38:32;;;;;;;2.22;0.57;;;3.10;99.90;;;;;;5030783;28;20052;-50
2020/12/30 06:40:59;;;;;;;2.45;0.88;;;3.10;99.90;;;;;;5029939;28;20053;-49
2020/12/30 06:43:39;;;;;;;1.45;0.40;;;3.10;99.90;;;;;;5030097;28;20478;-49
2020/12/30 06:46:26;;;;;;;1.40;0.40;;;3.20;99.90;;;;;;5024693;28;20504;-49
2020/12/30 06:48:58;;;;;;;0.85;0.80;;;3.20;99.90;;;;;;5029871;28;20418;-49
2020/12/30 06:51:38;;;;;;;0.70;0.50;;;3.20;99.90;;;;;;5029412;28;20057;-49
2020/12/30 06:54:05;;;;;;;1.38;0.70;;;3.20;99.90;;;;;;5020022;28;20054;-50
2020/12/30 06:56:44;;;;;;;0.55;0.40;;;3.10;99.90;;;;;;5023708;28;20049;-50
2020/12/30 06:59:40;;;;;;;0.40;0.30;;;3.10;99.90;;;;;;5013218;28;20072;-49
2020/12/30 07:02:08;;;;;;;0.93;0.30;;;3.10;99.90;;;;;;5000710;28;20487;-49
2020/12/30 07:04:35;;;;;;;0.32;0.30;;;3.20;99.90;;;;;;4995612;28;20049;-49
2020/12/30 07:07:18;;;;;;;0.40;0.30;;;3.20;99.90;;;;;;4997509;28;20090;-50
2020/12/30 07:09:45;;;;;;;1.55;0.40;;;3.20;99.90;;;;;;5001654;28;20487;-49
2020/12/30 07:12:11;;;;;;;0.80;0.60;;;3.10;99.90;;;;;;5008073;28;20042;-49
2020/12/30 07:14:38;;;;;;;1.40;0.50;;;3.10;99.90;;;;;;5005058;28;20054;-49
2020/12/30 07:17:08;;;;;;;0.50;0.40;;;3.20;99.90;;;;;;4993825;28;20044;-51
2020/12/30 07:19:40;;;;;;;0.40;0.40;;;3.10;99.90;;;;;;5009286;28;20148;-49
2020/12/30 07:22:12;;;;;;;0.70;0.40;;;3.20;99.90;;;;;;5008446;28;20046;-49
2020/12/30 07:24:56;;;;;;;0.43;0.40;;;3.10;99.90;;;;;;5007579;28;20065;-49
2020/12/30 07:27:27;;;;;;;1.17;0.43;;;3.10;99.90;;;;;;5005708;28;20065;-50
2020/12/30 07:29:54;;;;;;;0.95;0.95;;;3.10;99.90;;;;;;5008182;28;20065;-49
2020/12/30 07:32:21;;;;;;;1.65;0.60;;;3.10;99.90;;;;;;5007653;28;20056;-50
2020/12/30 07:34:49;;;;;;;0.50;0.47;;;3.10;99.90;;;;;;5007884;28;20445;-49
2020/12/30 07:37:17;;;;;;;0.40;0.30;;;3.10;99.90;;;;;;4996689;28;20046;-49
2020/12/30 07:39:45;;;;;;;0.40;0.32;;;3.10;99.90;;;;;;5023639;28;20644;-53
2020/12/30 07:42:15;;;;;;;1.50;0.20;;;3.10;99.90;;;;;;5029575;28;20053;-49
2020/12/30 07:44:46;;;;;;;0.60;0.20;;;3.20;99.90;;;;;;5029546;28;20072;-50
2020/12/30 07:47:13;;;;;;;0.30;0.20;;;3.10;99.90;;;;;;5022582;28;20498;-50
2020/12/30 07:49:40;;;;;;;0.30;0.30;;;3.20;99.90;;;;;;5022598;28;20050;-49
2020/12/30 07:52:07;;;;;;;0.55;0.30;;;3.20;99.90;;;;;;5020478;28;20049;-50
2020/12/30 07:54:34;;;;;;;7.20;5.30;;;3.30;99.90;;;;;;5017101;28;20780;-49
2020/12/30 07:57:06;;;;;;;2.55;1.00;;;3.30;99.90;;;;;;5024655;28;20408;-49
2020/12/30 07:59:35;;;;;;;0.33;0.30;;;3.30;99.90;;;;;;5020787;28;20088;-49
2020/12/30 08:02:11;;;;;;;0.60;0.57;;;3.30;99.90;;;;;;5028927;28;20749;-49
2020/12/30 08:04:39;;;;;;;11.25;0.22;;;3.30;99.90;;;;;;5028929;28;20080;-50
2020/12/30 08:07:10;;;;;;;0.95;0.20;;;3.30;99.90;;;;;;5019991;28;20399;-50
2020/12/30 08:09:41;;;;;;;0.30;0.25;;;3.30;99.90;;;;;;5021939;28;20061;-50
2020/12/30 08:12:10;;;;;;;0.38;0.30;;;3.30;99.90;;;;;;5023345;28;20080;-49
2020/12/30 08:14:42;;;;;;;2.88;0.30;;;3.40;99.90;;;;;;5030685;28;20053;-50
2020/12/30 08:17:13;;;;;;;0.40;0.20;;;3.40;99.90;;;;;;5033837;28;20042;-49
2020/12/30 08:19:48;;;;;;;2.05;0.82;;;3.40;99.90;;;;;;5025544;28;20045;-49
2020/12/30 08:22:26;;;;;;;0.80;0.70;;;3.40;99.90;;;;;;5022121;28;20156;-51
2020/12/30 08:24:57;;;;;;;1.25;0.68;;;3.50;99.90;;;;;;5026426;28;20056;-49
2020/12/30 08:27:26;;;;;;;0.40;0.35;;;3.50;99.90;;;;;;5029565;28;20462;-49
2020/12/30 08:29:57;;;;;;;0.47;0.40;;;3.60;99.90;;;;;;5033942;28;20045;-49
2020/12/30 08:32:32;;;;;;;3.53;0.30;;;3.50;99.90;;;;;;5031110;28;20088;-50
2020/12/30 08:35:20;;;;;;;0.63;0.40;;;3.50;99.90;;;;;;5033201;28;20041;-49
2020/12/30 08:37:51;;;;;;;10.90;6.35;;;3.60;99.90;;;;;;5027194;28;20056;-50
2020/12/30 08:40:24;;;;;;;0.40;0.40;;;3.60;99.90;;;;;;5031769;28;20100;-49
2020/12/30 08:42:53;;;;;;;1.55;0.32;;;3.60;99.90;;;;;;5032387;28;20044;-49
2020/12/30 08:45:28;;;;;;;1.42;0.65;;;3.60;99.90;;;;;;5027011;28;20419;-49
2020/12/30 08:47:57;;;;;;;0.88;0.47;;;3.60;99.90;;;;;;5022285;28;20050;-49
2020/12/30 08:50:25;;;;;;;0.80;0.50;;;3.70;99.90;;;;;;5020035;28;20054;-49
2020/12/30 08:52:55;;;;;;;2.05;0.50;;;3.60;99.90;;;;;;5027938;28;20052;-49
2020/12/30 08:55:22;;;;;;;1.33;0.52;;;3.60;99.90;;;;;;5033666;28;20050;-49
2020/12/30 08:57:49;;;;;;;0.45;0.30;;;3.70;99.90;;;;;;5030606;28;20049;-49
2020/12/30 09:00:17;;;;;;;0.40;0.30;;;3.70;99.90;;;;;;5031486;28;20041;-49
2020/12/30 09:02:45;;;;;;;0.63;0.40;;;3.70;99.90;;;;;;5030068;28;20465;-49
2020/12/30 09:05:12;;;;;;;0.90;0.47;;;3.70;99.90;;;;;;5032535;28;20056;-49
2020/12/30 09:07:39;;;;;;;1.20;0.50;;;3.80;99.90;;;;;;5031416;28;20049;-49
2020/12/30 09:10:10;;;;;;;1.70;0.40;;;3.90;99.90;;;;;;5029163;28;20490;-49
2020/12/30 09:12:38;;;;;;;0.68;0.60;;;4.00;99.90;;;;;;5026827;28;20061;-50
2020/12/30 09:15:06;;;;;;;0.40;0.40;;;4.20;99.90;;;;;;5028611;28;20048;-49
2020/12/30 09:17:34;;;;;;;1.90;0.32;;;4.30;99.90;;;;;;5018089;28;20057;-51
2020/12/30 09:20:15;;;;;;;2.92;0.65;;;4.30;99.90;;;;;;5031580;28;20406;-49
2020/12/30 09:22:44;;;;;;;0.50;0.50;;;4.30;99.90;;;;;;5030155;28;20042;-49
2020/12/30 09:25:28;;;;;;;1.10;0.50;;;4.30;99.90;;;;;;5027545;28;20049;-50
2020/12/30 09:27:55;;;;;;;13.63;7.70;;;4.40;99.90;;;;;;5028569;28;20050;-49
2020/12/30 09:30:25;;;;;;;4.10;1.10;;;4.40;99.90;;;;;;5032848;28;20060;-49
2020/12/30 09:32:56;;;;;;;8.02;0.60;;;4.40;99.90;;;;;;5022451;28;20472;-49
2020/12/30 09:35:28;;;;;;;1.10;0.40;;;4.20;99.90;;;;;;5020351;28;20391;-49
2020/12/30 09:37:57;;;;;;;1.20;0.40;;;4.20;99.90;;;;;;5017960;28;20046;-49
2020/12/30 09:40:25;;;;;;;0.80;0.40;;;4.30;99.90;;;;;;5027601;28;20517;-50
2020/12/30 09:42:52;;;;;;;0.50;0.40;;;4.50;99.90;;;;;;5014141;28;20048;-49
2020/12/30 09:45:20;;;;;;;0.40;0.40;;;4.50;99.90;;;;;;5030510;28;20053;-50
2020/12/30 09:47:47;;;;;;;5.57;0.60;;;4.60;99.90;;;;;;5034193;28;20475;-49
2020/12/30 09:50:17;;;;;;;1.30;0.40;;;4.70;99.90;;;;;;5023489;28;20054;-50
2020/12/30 09:52:45;;;;;;;0.63;0.32;;;4.70;99.90;;;;;;5029185;28;20049;-49
2020/12/30 09:55:12;;;;;;;3.40;0.60;;;4.80;99.90;;;;;;5031419;28;20049;-49
2020/12/30 09:57:39;;;;;;;1.73;0.70;;;4.90;99.90;;;;;;5029257;28;20053;-52
2020/12/30 10:00:07;;;;;;;2.35;0.68;;;4.90;99.90;;;;;;5014584;28;20045;-50
2020/12/30 10:02:34;;;;;;;2.90;0.60;;;4.90;99.90;;;;;;5027155;28;20054;-49
2020/12/30 10:05:01;;;;;;;1.05;0.93;;;4.90;99.90;;;;;;5018395;28;20064;-49
2020/12/30 10:07:27;;;;;;;2.45;0.75;;;5.00;99.90;;;;;;5030589;28;20053;-49
2020/12/30 10:09:54;;;;;;;1.02;0.40;;;4.90;99.90;;;;;;5030640;28;20406;-49
2020/12/30 10:12:23;;;;;;;0.60;0.40;;;4.70;99.90;;;;;;5031786;28;20461;-48
2020/12/30 10:14:50;;;;;;;0.73;0.40;;;4.70;99.90;;;;;;5028494;28;20060;-49
2020/12/30 10:17:16;;;;;;;1.58;0.60;;;4.70;99.90;;;;;;5024412;28;20494;-49
2020/12/30 10:19:43;;;;;;;0.80;0.55;;;4.80;99.90;;;;;;5025903;28;20050;-49
2020/12/30 10:22:10;;;;;;;2.83;0.70;;;4.80;99.90;;;;;;5015315;28;20486;-48
2020/12/30 10:24:44;;;;;;;5.20;0.80;;;4.70;99.90;;;;;;5029911;28;20042;-49
2020/12/30 10:27:11;;;;;;;1.92;0.50;;;4.70;99.90;;;;;;5025763;28;20079;-49
2020/12/30 10:29:38;;;;;;;2.15;0.60;;;4.80;99.90;;;;;;5020591;28;20057;-49
2020/12/30 10:32:04;;;;;;;2.15;0.50;;;4.90;99.90;;;;;;5026966;28;20045;-49
2020/12/30 10:34:32;;;;;;;0.40;0.30;;;4.90;99.90;;;;;;5012192;28;20053;-48
2020/12/30 10:36:59;;;;;;;2.83;0.30;;;4.80;99.90;;;;;;5028590;28;20061;-49
2020/12/30 10:39:25;;;;;;;3.90;0.60;;;4.80;99.90;;;;;;5025550;28;20049;-50
2020/12/30 10:41:55;;;;;;;1.20;0.60;;;4.80;99.90;;;;;;5019908;28;20049;-49
2020/12/30 10:44:23;;;;;;;0.60;0.50;;;4.90;99.90;;;;;;5022053;28;20049;-50
2020/12/30 10:46:49;;;;;;;2.28;1.50;;;4.90;99.90;;;;;;5031542;28;20057;-50
2020/12/30 10:49:16;;;;;;;2.90;1.95;;;4.90;99.90;;;;;;5029609;28;20056;-49
2020/12/30 10:51:46;;;;;;;2.75;0.50;;;5.00;99.90;;;;;;5012806;28;20053;-50
2020/12/30 10:54:16;;;;;;;1.15;0.60;;;5.20;99.90;;;;;;5025442;28;20042;-49
2020/12/30 10:56:46;;;;;;;1.13;0.32;;;5.30;99.90;;;;;;5017316;28;20429;-49
2020/12/30 10:59:14;;;;;;;1.98;0.30;;;5.40;99.90;;;;;;5028614;28;20052;-50
2020/12/30 11:01:41;;;;;;;3.58;0.75;;;5.30;99.90;;;;;;5025792;28;20084;-49
2020/12/30 11:04:08;;;;;;;0.63;0.20;;;5.30;99.90;;;;;;5025640;28;20038;-51
2020/12/30 11:06:35;;;;;;;0.20;0.10;;;5.40;99.90;;;;;;5027188;28;20053;-50
2020/12/30 11:09:02;;;;;;;2.88;1.17;;;5.30;99.90;;;;;;5029398;28;20068;-49
2020/12/30 11:11:28;;;;;;;0.60;0.40;;;5.40;99.90;;;;;;5027230;28;20137;-49
2020/12/30 11:13:54;;;;;;;0.50;0.40;;;5.40;99.90;;;;;;5028650;28;20064;-50
2020/12/30 11:16:21;;;;;;;0.65;0.20;;;5.50;99.90;;;;;;5030341;28;20050;-49
2020/12/30 11:18:47;;;;;;;6.07;0.40;;;5.60;99.90;;;;;;5028985;28;20045;-49
2020/12/30 11:21:14;;;;;;;0.75;0.30;;;5.80;99.90;;;;;;5027836;28;20050;-49
2020/12/30 11:23:40;;;;;;;0.55;0.25;;;5.90;99.90;;;;;;5028683;28;20045;-49
2020/12/30 11:26:07;;;;;;;0.43;0.20;;;6.10;99.90;;;;;;5028339;28;20053;-49
2020/12/30 11:28:34;;;;;;;1.67;0.30;;;6.10;99.90;;;;;;5025262;28;20557;-49
2020/12/30 11:31:00;;;;;;;1.23;0.60;;;5.90;99.90;;;;;;5029456;28;20046;-49
2020/12/30 11:33:27;;;;;;;0.68;0.40;;;5.80;99.90;;;;;;5026762;28;20053;-50
2020/12/30 11:35:53;;;;;;;1.67;0.20;;;5.80;99.90;;;;;;5029161;28;20049;-49
2020/12/30 11:38:20;;;;;;;4.53;1.20;;;5.60;99.90;;;;;;5030697;28;20050;-49
2020/12/30 11:40:46;;;;;;;0.30;0.20;;;5.50;99.90;;;;;;5027224;28;20937;-49
2020/12/30 11:43:13;;;;;;;0.15;0.10;;;5.50;99.90;;;;;;5028434;28;20068;-49
2020/12/30 11:45:40;;;;;;;3.70;0.35;;;5.40;99.90;;;;;;5034828;28;20052;-49
2020/12/30 11:48:06;;;;;;;1.33;0.50;;;5.40;99.90;;;;;;5033770;28;20674;-49
2020/12/30 11:50:34;;;;;;;1.02;0.50;;;5.50;99.90;;;;;;5033058;28;20053;-49
2020/12/30 11:53:01;;;;;;;2.47;0.90;;;5.50;99.90;;;;;;5033148;28;20060;-49
2020/12/30 11:55:28;;;;;;;0.80;0.50;;;5.50;99.90;;;;;;5029953;28;20065;-49
2020/12/30 11:57:55;;;;;;;2.05;1.00;;;5.50;99.90;;;;;;5023591;28;20467;-51
2020/12/30 12:00:21;;;;;;;0.80;0.70;;;5.60;99.90;;;;;;5034631;28;20041;-49
2020/12/30 12:02:48;;;;;;;1.42;0.30;;;5.60;99.90;;;;;;5032585;28;20060;-49
2020/12/30 12:05:15;;;;;;;1.23;0.70;;;5.60;99.90;;;;;;5024996;28;20062;-49
2020/12/30 12:07:42;;;;;;;0.50;0.40;;;5.60;99.90;;;;;;5022855;28;20061;-49
2020/12/30 12:10:10;;;;;;;1.35;0.63;;;5.60;99.90;;;;;;5020181;28;20056;-50
2020/12/30 12:12:38;;;;;;;0.75;0.30;;;5.60;99.90;;;;;;5029361;28;20411;-49
2020/12/30 12:15:08;;;;;;;1.67;0.63;;;5.60;99.90;;;;;;5024091;28;20061;-50
2020/12/30 12:17:34;;;;;;;1.85;0.70;;;5.60;99.90;;;;;;5029309;28;20054;-49
2020/12/30 12:20:02;;;;;;;2.35;0.70;;;5.60;99.90;;;;;;5018119;28;20495;-50
2020/12/30 12:22:29;;;;;;;0.40;0.40;;;5.50;99.90;;;;;;5033597;28;20041;-50
2020/12/30 12:24:56;;;;;;;0.22;0.20;;;5.50;99.90;;;;;;5031423;28;20045;-50
2020/12/30 12:27:23;;;;;;;0.70;0.40;;;5.40;99.90;;;;;;5019519;28;20045;-50
2020/12/30 12:29:50;;;;;;;0.30;0.20;;;5.30;99.90;;;;;;5027951;28;20049;-50
2020/12/30 12:32:20;;;;;;;0.90;0.32;;;5.30;99.90;;;;;;5033758;28;20394;-53
2020/12/30 12:34:49;;;;;;;1.45;0.80;;;5.20;99.90;;;;;;5027309;28;20380;-52
2020/12/30 12:37:17;;;;;;;1.70;0.50;;;5.10;99.90;;;;;;5025958;28;20060;-51
2020/12/30 12:39:46;;;;;;;1.00;0.50;;;5.10;99.90;;;;;;5030737;28;20398;-52
2020/12/30 12:42:14;;;;;;;0.35;0.20;;;5.10;99.90;;;;;;5026986;28;20042;-51
2020/12/30 12:44:41;;;;;;;0.82;0.65;;;5.10;99.90;;;;;;5026665;28;20391;-49
2020/12/30 12:47:08;;;;;;;2.33;0.70;;;5.10;99.90;;;;;;5026863;28;20049;-51
2020/12/30 12:49:34;;;;;;;4.43;2.22;;;5.10;99.90;;;;;;5032830;28;20053;-48
2020/12/30 12:52:01;;;;;;;1.33;1.20;;;5.00;99.90;;;;;;5032071;28;20053;-49
2020/12/30 12:54:30;;;;;;;2.20;0.80;;;5.00;99.90;;;;;;5019489;28;20080;-48
2020/12/30 12:57:07;;;;;;;1.45;0.70;;;5.10;99.90;;;;;;5021813;28;20049;-49
2020/12/30 12:59:34;;;;;;;1.00;0.57;;;5.10;99.90;;;;;;5025477;28;20430;-48
2020/12/30 13:02:01;;;;;;;1.67;0.70;;;5.00;99.90;;;;;;5016176;28;20053;-49
2020/12/30 13:04:29;;;;;;;2.40;1.60;;;5.10;99.90;;;;;;5028953;28;20138;-48
2020/12/30 13:06:58;;;;;;;0.75;0.57;;;5.00;99.90;;;;;;5031717;28;20053;-48